Time;durP1;ratioP1;P1;durP2;ratioP2;P2;SDS_P1;SDS_P2;PMS_P1;PMS_P2;Temp;Humidity;BMP_temperature;BMP_pressure;BME280_temperature;BME280_humidity;BME280_pressure;Samples;Min_cycle;Max_cycle;Signal;HPM_P1;HPM_P2
2023/08/31 00:02:06;;;;;;;6.85;3.78;;;;;;;17.58;100.00;100706.25;5054673;28;20025;-67
2023/08/31 00:04:32;;;;;;;6.50;4.07;;;;;;;17.62;100.00;100702.09;5054045;28;20024;-64
2023/08/31 00:06:57;;;;;;;7.78;4.65;;;;;;;17.55;100.00;100684.31;5052140;28;20025;-64
2023/08/31 00:09:26;;;;;;;7.78;4.95;;;;;;;17.52;100.00;100688.25;5051982;28;20090;-65
2023/08/31 00:11:51;;;;;;;8.25;4.93;;;;;;;17.45;100.00;100665.91;5052118;28;20082;-64
2023/08/31 00:14:17;;;;;;;7.65;4.88;;;;;;;17.33;100.00;100662.16;5056224;28;20033;-63
2023/08/31 00:16:45;;;;;;;8.32;4.63;;;;;;;17.30;100.00;100678.75;5052579;28;20132;-65
2023/08/31 00:19:11;;;;;;;7.63;4.57;;;;;;;17.25;100.00;100647.06;5052493;28;20039;-64
2023/08/31 00:21:37;;;;;;;12.52;5.18;;;;;;;17.29;100.00;100612.47;5055706;28;20110;-65
2023/08/31 00:24:03;;;;;;;6.63;5.40;;;;;;;17.20;100.00;100592.22;5056124;28;20029;-63
2023/08/31 00:26:30;;;;;;;7.53;4.88;;;;;;;17.18;100.00;100589.75;5057523;28;20029;-65
2023/08/31 00:28:58;;;;;;;9.30;5.32;;;;;;;17.14;100.00;100599.28;5063730;28;20099;-63
2023/08/31 00:31:23;;;;;;;8.03;4.87;;;;;;;17.07;100.00;100594.94;5061855;28;20101;-64
2023/08/31 00:33:50;;;;;;;8.95;5.40;;;;;;;17.09;100.00;100626.00;5054746;28;20325;-63
2023/08/31 00:36:16;;;;;;;7.13;4.82;;;;;;;17.02;100.00;100603.63;5055784;28;20479;-64
2023/08/31 00:38:42;;;;;;;10.40;5.32;;;;;;;17.03;100.00;100610.66;5055885;28;20029;-63
2023/08/31 00:41:07;;;;;;;9.75;6.80;;;;;;;17.14;100.00;100619.97;5056067;28;20082;-65
2023/08/31 00:43:33;;;;;;;9.68;5.50;;;;;;;17.08;100.00;100610.88;5056434;28;20040;-66
2023/08/31 00:45:59;;;;;;;9.63;5.30;;;;;;;17.04;100.00;100623.91;5055759;28;20107;-64
2023/08/31 00:48:26;;;;;;;8.10;5.68;;;;;;;17.03;100.00;100626.78;5055693;28;20028;-65
2023/08/31 00:50:52;;;;;;;9.80;5.18;;;;;;;17.09;100.00;100630.53;5055652;28;20048;-66
2023/08/31 00:53:18;;;;;;;9.48;6.65;;;;;;;17.12;100.00;100624.75;5056191;28;20028;-65
2023/08/31 00:55:47;;;;;;;9.48;6.38;;;;;;;16.97;100.00;100622.25;5055808;28;20106;-64
2023/08/31 00:58:13;;;;;;;11.88;8.30;;;;;;;17.03;100.00;100638.38;5055217;28;20025;-65
2023/08/31 01:01:19;;;;;;;12.75;9.10;;;;;;;17.07;100.00;100635.31;5055169;28;20033;-64
2023/08/31 01:04:03;;;;;;;15.32;8.18;;;;;;;16.98;100.00;100632.81;5054387;28;20039;-65
2023/08/31 01:07:04;;;;;;;10.65;8.13;;;;;;;17.04;100.00;100641.91;5058046;28;20028;-65
2023/08/31 01:09:43;;;;;;;14.82;8.35;;;;;;;16.95;100.00;100638.59;5062554;28;20064;-66
2023/08/31 01:12:29;;;;;;;11.25;7.97;;;;;;;16.99;100.00;100647.91;5061375;28;20380;-62
2023/08/31 01:15:04;;;;;;;14.07;9.00;;;;;;;16.96;100.00;100621.44;5061232;28;20024;-64
2023/08/31 01:17:31;;;;;;;11.38;8.93;;;;;;;16.97;100.00;100627.63;5065555;28;20035;-63
2023/08/31 01:20:00;;;;;;;8.70;6.90;;;;;;;16.75;100.00;100594.72;5065321;28;20029;-65
2023/08/31 01:22:55;;;;;;;9.68;7.05;;;;;;;16.97;100.00;100628.47;5056118;28;20028;-65
2023/08/31 01:25:21;;;;;;;7.93;6.57;;;;;;;16.99;100.00;100631.78;5055889;28;20028;-64
2023/08/31 01:27:47;;;;;;;11.32;6.78;;;;;;;16.93;100.00;100611.09;5062938;28;20033;-64
2023/08/31 01:30:12;;;;;;;12.25;8.07;;;;;;;16.86;100.00;100607.56;5061562;28;20132;-63
2023/08/31 01:32:45;;;;;;;7.75;6.15;;;;;;;16.78;100.00;100606.97;5055962;28;20037;-64
2023/08/31 01:35:11;;;;;;;10.63;7.88;;;;;;;16.89;100.00;100615.22;5055386;28;20037;-65
2023/08/31 01:37:45;;;;;;;11.90;7.90;;;;;;;16.85;100.00;100599.72;5061202;28;20028;-64
2023/08/31 01:40:14;;;;;;;13.23;7.35;;;;;;;16.60;100.00;100559.13;5068496;28;20029;-63
2023/08/31 01:42:45;;;;;;;14.15;8.43;;;;;;;16.77;100.00;100583.75;5071524;28;20092;-64
2023/08/31 01:45:15;;;;;;;10.48;7.80;;;;;;;16.72;100.00;100573.63;5066826;28;20025;-64
2023/08/31 01:47:41;;;;;;;12.00;7.10;;;;;;;16.79;100.00;100592.47;5066214;28;20040;-65
2023/08/31 01:50:06;;;;;;;14.57;8.30;;;;;;;16.75;100.00;100586.66;5063679;28;20054;-63
2023/08/31 01:52:32;;;;;;;10.10;7.03;;;;;;;16.67;100.00;100570.75;5062426;28;20037;-66
2023/08/31 01:54:58;;;;;;;13.70;8.63;;;;;;;16.78;100.00;100574.69;5061827;28;20368;-64
2023/08/31 01:57:23;;;;;;;15.57;9.68;;;;;;;16.73;100.00;100557.28;5068859;28;20044;-65
2023/08/31 01:59:49;;;;;;;12.63;8.65;;;;;;;16.72;100.00;100554.81;5069251;28;20464;-64
2023/08/31 02:02:14;;;;;;;13.60;8.98;;;;;;;16.55;100.00;100529.38;5069920;28;20021;-63
2023/08/31 02:04:40;;;;;;;16.88;9.30;;;;;;;16.61;100.00;100536.59;5070475;28;20047;-64
2023/08/31 02:07:05;;;;;;;15.27;9.57;;;;;;;16.75;100.00;100554.41;5068435;28;20029;-65
2023/08/31 02:09:31;;;;;;;16.80;11.05;;;;;;;16.75;100.00;100540.94;5072344;28;20134;-64
2023/08/31 02:11:56;;;;;;;14.60;9.32;;;;;;;16.75;100.00;100527.50;5073438;28;20063;-65
2023/08/31 02:14:23;;;;;;;12.02;8.88;;;;;;;16.76;100.00;100510.34;5070886;28;20027;-65
2023/08/31 02:16:48;;;;;;;11.57;8.68;;;;;;;16.82;100.00;100520.28;5059908;28;20084;-68
2023/08/31 02:19:14;;;;;;;15.73;10.38;;;;;;;16.66;100.00;100494.63;5057261;28;20488;-65
2023/08/31 02:21:39;;;;;;;14.45;8.90;;;;;;;16.75;100.00;100516.75;5058042;28;20036;-65
2023/08/31 02:24:05;;;;;;;9.85;7.65;;;;;;;16.68;100.00;100497.94;5058733;28;20080;-64
2023/08/31 02:26:31;;;;;;;11.65;7.22;;;;;;;16.76;100.00;100506.81;5067955;28;20025;-64
2023/08/31 02:28:56;;;;;;;14.13;8.95;;;;;;;16.71;100.00;100488.63;5069958;28;20124;-62
2023/08/31 02:31:22;;;;;;;17.65;9.70;;;;;;;16.60;100.00;100482.00;5068471;28;20044;-65
2023/08/31 02:33:48;;;;;;;15.13;9.25;;;;;;;16.68;100.00;100500.63;5067094;28;20033;-65
2023/08/31 02:36:14;;;;;;;17.98;9.73;;;;;;;16.68;100.00;100508.69;5067239;28;20098;-65
2023/08/31 02:38:39;;;;;;;14.27;9.25;;;;;;;16.21;100.00;100423.75;5066227;28;20461;-63
2023/08/31 02:41:05;;;;;;;14.98;10.27;;;;;;;16.71;100.00;100484.06;5068196;28;20059;-65
2023/08/31 02:43:30;;;;;;;15.98;10.80;;;;;;;16.65;100.00;100474.13;5068238;28;20025;-64
2023/08/31 02:46:01;;;;;;;14.77;8.60;;;;;;;16.67;100.00;100476.63;5067824;28;20033;-65
2023/08/31 02:48:27;;;;;;;10.13;7.82;;;;;;;16.63;100.00;100473.50;5068356;28;20031;-65
2023/08/31 02:50:53;;;;;;;11.88;7.45;;;;;;;16.75;100.00;100489.03;5067257;28;20033;-65
2023/08/31 02:53:19;;;;;;;8.65;7.57;;;;;;;16.68;100.00;100475.59;5064477;28;20542;-66
2023/08/31 02:55:45;;;;;;;10.63;7.20;;;;;;;16.82;100.00;100517.59;5067722;28;20040;-64
2023/08/31 02:58:11;;;;;;;9.75;7.47;;;;;;;16.87;100.00;100515.09;5066666;28;20017;-66
2023/08/31 03:00:39;;;;;;;12.60;7.88;;;;;;;16.92;100.00;100517.97;5067678;28;20033;-64
2023/08/31 03:03:05;;;;;;;9.57;7.35;;;;;;;16.95;100.00;100524.78;5060125;28;20032;-65
2023/08/31 03:05:30;;;;;;;8.35;6.40;;;;;;;16.87;100.00;100531.22;5060025;28;20025;-63
2023/08/31 03:07:56;;;;;;;10.07;6.72;;;;;;;16.86;100.00;100512.63;5056985;28;20174;-65
2023/08/31 03:10:22;;;;;;;8.40;6.72;;;;;;;16.90;100.00;100549.63;5063309;28;20420;-66
2023/08/31 03:12:48;;;;;;;9.27;6.03;;;;;;;16.94;100.00;100541.97;5068952;28;20063;-66
2023/08/31 03:15:13;;;;;;;7.35;6.13;;;;;;;16.93;100.00;100543.84;5070339;28;20044;-64
2023/08/31 03:17:39;;;;;;;11.63;7.78;;;;;;;16.86;100.00;100537.66;5064214;28;20058;-65
2023/08/31 03:20:06;;;;;;;7.28;5.95;;;;;;;16.81;100.00;100526.69;5071094;28;20055;-65
2023/08/31 03:22:31;;;;;;;7.25;5.95;;;;;;;16.91;100.00;100548.59;5076029;28;20486;-64
2023/08/31 03:24:57;;;;;;;7.85;5.57;;;;;;;16.91;100.00;100548.59;5064159;28;20064;-65
2023/08/31 03:27:22;;;;;;;9.15;6.00;;;;;;;16.93;100.00;100546.53;5066724;28;20072;-64
2023/08/31 03:29:48;;;;;;;12.90;5.95;;;;;;;16.91;100.00;100537.84;5067020;28;20052;-65
2023/08/31 03:32:14;;;;;;;8.75;5.95;;;;;;;16.93;100.00;100540.31;5064928;28;20025;-64
2023/08/31 03:34:39;;;;;;;10.98;6.72;;;;;;;16.88;100.00;100519.44;5069327;28;20044;-64
2023/08/31 03:37:05;;;;;;;9.73;7.00;;;;;;;16.85;100.00;100522.53;5065213;28;20025;-63
2023/08/31 03:39:30;;;;;;;9.10;6.70;;;;;;;16.97;100.00;100537.00;5063919;28;20496;-65
2023/08/31 03:41:56;;;;;;;11.80;7.07;;;;;;;16.92;100.00;100517.97;5065867;28;20089;-64
2023/08/31 03:44:21;;;;;;;11.93;7.38;;;;;;;16.96;100.00;100529.13;5044985;28;20384;-64
2023/08/31 03:46:47;;;;;;;11.25;8.50;;;;;;;16.93;100.00;100514.25;5063777;28;20021;-66
2023/08/31 03:49:12;;;;;;;14.77;8.75;;;;;;;17.02;100.00;100533.66;5064196;28;20499;-64
2023/08/31 03:51:38;;;;;;;13.40;8.43;;;;;;;16.81;100.00;100477.47;5062958;28;20025;-64
2023/08/31 03:54:03;;;;;;;9.07;7.25;;;;;;;17.13;100.00;100518.75;5061782;28;20033;-63
2023/08/31 03:56:29;;;;;;;13.55;7.63;;;;;;;17.16;100.00;100513.78;5060201;28;20028;-65
2023/08/31 03:58:54;;;;;;;14.43;8.48;;;;;;;17.20;100.00;100535.72;5057444;28;20037;-64
2023/08/31 04:01:20;;;;;;;13.13;8.73;;;;;;;17.19;100.00;100534.88;5063933;28;20056;-65
2023/08/31 04:03:46;;;;;;;19.58;11.18;;;;;;;17.19;100.00;100534.06;5027594;28;20017;-65
2023/08/31 04:06:11;;;;;;;19.27;11.07;;;;;;;17.23;100.00;100546.06;5059965;28;20024;-63
2023/08/31 04:08:37;;;;;;;20.88;12.45;;;;;;;17.29;100.00;100540.63;5064229;28;20056;-64
2023/08/31 04:11:03;;;;;;;18.25;10.15;;;;;;;17.19;100.00;100523.28;5074214;28;20036;-65
2023/08/31 04:13:28;;;;;;;16.95;8.52;;;;;;;17.26;100.00;100535.69;5075912;28;20040;-65
2023/08/31 04:15:54;;;;;;;12.70;8.73;;;;;;;17.29;100.00;100543.34;5076618;28;20063;-65
2023/08/31 04:18:20;;;;;;;16.23;9.30;;;;;;;17.25;100.00;100543.97;5074045;28;20025;-64
2023/08/31 04:20:50;;;;;;;11.32;8.77;;;;;;;17.31;100.00;100538.56;5071142;28;20046;-65
2023/08/31 04:23:17;;;;;;;12.45;8.15;;;;;;;17.26;100.00;100529.47;5073022;28;20039;-63
2023/08/31 04:25:43;;;;;;;16.77;9.80;;;;;;;17.38;100.00;100543.13;5069624;28;20036;-65
2023/08/31 04:28:08;;;;;;;11.63;8.50;;;;;;;17.38;100.00;100548.50;5054058;28;20464;-65
2023/08/31 04:30:34;;;;;;;13.32;9.07;;;;;;;17.35;100.00;100525.53;5070670;28;20017;-64
2023/08/31 04:32:59;;;;;;;10.35;7.50;;;;;;;17.38;100.00;100533.19;5072526;28;20028;-65
2023/08/31 04:35:25;;;;;;;12.60;8.30;;;;;;;17.50;100.00;100557.56;5076026;28;20037;-66
2023/08/31 04:37:50;;;;;;;11.25;8.68;;;;;;;17.34;100.00;100519.28;5074992;28;20033;-66
2023/08/31 04:40:16;;;;;;;13.73;8.68;;;;;;;17.55;100.00;100557.75;5071699;28;20040;-67
2023/08/31 04:42:42;;;;;;;10.98;8.48;;;;;;;17.13;100.00;100502.63;5075262;28;20028;-67
2023/08/31 04:45:08;;;;;;;11.00;8.63;;;;;;;17.52;100.00;100553.63;5075942;28;20005;-67
2023/08/31 04:47:33;;;;;;;12.82;8.20;;;;;;;17.61;100.00;100560.41;5074783;28;20025;-64
2023/08/31 04:49:59;;;;;;;12.07;8.98;;;;;;;17.59;100.00;100557.09;5076048;28;20033;-66
2023/08/31 04:52:25;;;;;;;13.18;10.07;;;;;;;17.62;100.00;100553.16;5075336;28;20037;-65
2023/08/31 04:54:50;;;;;;;13.52;10.32;;;;;;;17.64;100.00;100562.69;5076182;28;20051;-68
2023/08/31 04:57:16;;;;;;;16.05;11.63;;;;;;;17.77;100.00;100564.53;5074525;28;20025;-67
2023/08/31 04:59:41;;;;;;;12.35;9.80;;;;;;;17.76;100.00;100553.97;5075537;28;20085;-68
2023/08/31 05:02:06;;;;;;;11.30;8.70;;;;;;;17.63;100.00;100504.47;5075854;28;20089;-66
2023/08/31 05:04:32;;;;;;;11.15;8.60;;;;;;;18.29;100.00;100583.31;5074863;28;20013;-67
2023/08/31 05:06:57;;;;;;;13.38;9.27;;;;;;;18.50;100.00;100569.47;5075864;28;20021;-67
2023/08/31 05:09:25;;;;;;;9.77;7.22;;;;;;;18.66;100.00;100552.78;5079410;28;20024;-66
2023/08/31 05:11:50;;;;;;;16.17;11.23;;;;;;;19.00;100.00;100577.59;5075116;28;20024;-65
2023/08/31 05:14:15;;;;;;;8.57;6.68;;;;;;;19.14;100.00;100568.31;5076737;28;20032;-66
2023/08/31 05:16:41;;;;;;;13.68;7.70;;;;;;;19.53;100.00;100575.19;5074916;28;20084;-69
2023/08/31 05:19:07;;;;;;;8.18;5.20;;;;;;;19.71;100.00;100572.47;5059051;28;20036;-66
2023/08/31 05:21:32;;;;;;;10.52;5.03;;;;;;;19.82;100.00;100576.28;5074104;28;20076;-67
2023/08/31 05:23:58;;;;;;;7.20;5.25;;;;;;;19.78;100.00;100573.22;5078154;28;20522;-66
2023/08/31 05:26:23;;;;;;;9.30;5.97;;;;;;;19.79;100.00;100584.84;5078375;28;20015;-67
2023/08/31 05:28:50;;;;;;;8.73;4.75;;;;;;;19.70;100.00;100565.44;5077144;28;20037;-66
2023/08/31 05:31:16;;;;;;;10.32;7.00;;;;;;;19.79;100.00;100579.44;5074001;28;20044;-70
2023/08/31 05:33:41;;;;;;;7.80;5.18;;;;;;;19.70;100.00;100570.00;5069521;28;20021;-67
2023/08/31 05:36:07;;;;;;;7.28;4.95;;;;;;;19.70;100.00;100591.63;5056484;28;20102;-68
2023/08/31 05:38:33;;;;;;;8.35;5.75;;;;;;;19.63;100.00;100574.63;5070689;28;20013;-68
2023/08/31 05:41:09;;;;;;;5.88;5.18;;;;;;;19.71;100.00;100587.88;5075981;28;20037;-67
2023/08/31 05:43:36;;;;;;;12.82;7.47;;;;;;;19.67;100.00;100592.06;5066583;28;20151;-67
2023/08/31 05:46:02;;;;;;;8.13;6.05;;;;;;;19.58;100.00;100593.41;5071919;28;20041;-67
2023/08/31 05:48:28;;;;;;;8.95;6.07;;;;;;;19.41;100.00;100593.16;5076881;28;20071;-68
2023/08/31 05:50:54;;;;;;;14.45;5.55;;;;;;;19.26;100.00;100580.03;5073013;28;20039;-67
2023/08/31 05:53:20;;;;;;;7.47;4.97;;;;;;;19.35;100.00;100594.03;5074021;28;20063;-68
2023/08/31 05:55:46;;;;;;;6.32;4.93;;;;;;;19.32;100.00;100589.91;5076034;28;20024;-66
2023/08/31 05:58:11;;;;;;;6.80;5.95;;;;;;;19.42;100.00;100581.31;5077738;28;20055;-67
2023/08/31 06:00:38;;;;;;;8.38;5.53;;;;;;;19.41;100.00;100593.16;5076550;28;20033;-68
2023/08/31 06:03:05;;;;;;;7.30;5.68;;;;;;;19.47;100.00;100603.88;5076475;28;20029;-67
2023/08/31 06:05:31;;;;;;;9.63;5.00;;;;;;;19.34;100.00;100577.00;5078058;28;20120;-68
2023/08/31 06:07:58;;;;;;;7.63;5.82;;;;;;;19.47;100.00;100598.50;5076170;28;20037;-71
2023/08/31 06:10:23;;;;;;;9.38;5.65;;;;;;;19.67;100.00;100605.59;5078232;28;20021;-68
2023/08/31 06:12:50;;;;;;;7.55;5.22;;;;;;;19.87;100.00;100603.44;5074729;28;20507;-67
2023/08/31 06:15:16;;;;;;;10.68;6.82;;;;;;;20.01;100.00;100596.81;5075732;28;20081;-66
2023/08/31 06:17:41;;;;;;;9.50;5.55;;;;;;;20.13;100.00;100609.56;5078036;28;20087;-68
2023/08/31 06:20:08;;;;;;;9.40;5.30;;;;;;;20.11;100.00;100609.78;5077180;28;20033;-67
2023/08/31 06:22:34;;;;;;;11.00;7.43;;;;;;;20.01;100.00;100591.41;5077545;28;20028;-68
2023/08/31 06:25:00;;;;;;;14.50;5.55;;;;;;;20.00;100.00;100592.47;5077755;28;20033;-66
2023/08/31 06:27:26;;;;;;;8.57;5.50;;;;;;;20.06;100.00;100602.38;5076586;28;20029;-67
2023/08/31 06:29:51;;;;;;;11.65;5.97;;;;;;;20.03;100.00;100592.00;5075413;28;20096;-66
2023/08/31 06:32:18;;;;;;;9.90;6.18;;;;;;;20.07;100.00;100590.50;5077851;28;20044;-68
2023/08/31 06:34:44;;;;;;;7.40;4.93;;;;;;;20.25;100.00;100588.81;5072202;28;20059;-63
2023/08/31 06:37:09;;;;;;;12.15;5.30;;;;;;;20.42;100.00;100595.22;5072703;28;20033;-64
2023/08/31 06:39:35;;;;;;;7.00;5.13;;;;;;;20.71;100.00;100588.94;5073958;28;20046;-64
2023/08/31 06:42:02;;;;;;;11.63;5.97;;;;;;;20.85;100.00;100592.25;5074170;28;20055;-68
2023/08/31 06:44:29;;;;;;;8.30;5.32;;;;;;;20.77;100.00;100581.75;5065321;28;20063;-67
2023/08/31 06:46:55;;;;;;;7.45;5.60;;;;;;;20.91;100.00;100609.44;5060749;28;20017;-65
2023/08/31 06:49:22;;;;;;;12.15;6.32;;;;;;;20.78;100.00;100586.09;5056423;28;20035;-70
2023/08/31 06:51:47;;;;;;;9.55;6.20;;;;;;;20.85;100.00;100594.16;5054615;28;20052;-66
2023/08/31 06:54:13;;;;;;;15.50;5.97;;;;;;;20.67;100.00;100566.09;5056205;28;20029;-67
2023/08/31 06:56:38;;;;;;;13.32;5.95;;;;;;;20.76;100.00;100584.69;5055356;28;20032;-65
2023/08/31 06:59:03;;;;;;;13.80;5.75;;;;;;;20.81;100.00;100592.94;5054762;28;20080;-64
2023/08/31 07:01:29;;;;;;;12.63;6.30;;;;;;;20.77;100.00;100581.75;5054761;28;20456;-66
2023/08/31 07:03:55;;;;;;;13.65;6.32;;;;;;;20.83;100.00;100577.31;5054219;28;20035;-63
2023/08/31 07:06:21;;;;;;;7.07;5.72;;;;;;;20.87;100.00;100575.78;5053630;28;20087;-63
2023/08/31 07:08:47;;;;;;;13.07;6.20;;;;;;;21.01;100.00;100594.25;5053181;28;20033;-62
2023/08/31 07:11:14;;;;;;;8.90;5.85;;;;;;;21.19;100.00;100578.94;5053239;28;20029;-66
2023/08/31 07:13:40;;;;;;;9.13;5.75;;;;;;;21.36;100.00;100579.88;5053462;28;20459;-63
2023/08/31 07:16:05;;;;;;;9.02;6.18;;;;;;;21.43;100.00;100568.94;5053473;28;20024;-66
2023/08/31 07:18:31;;;;;;;8.60;6.32;;;;;;;21.43;100.00;100563.53;5053394;28;20029;-63
2023/08/31 07:20:57;;;;;;;9.15;5.80;;;;;;;21.37;100.00;100564.47;5053850;28;20036;-64
2023/08/31 07:23:23;;;;;;;11.80;7.43;;;;;;;20.59;100.00;100452.00;5053666;28;20626;-63
2023/08/31 07:25:49;;;;;;;10.60;5.40;;;;;;;21.36;100.00;100570.94;5053488;28;20036;-62
2023/08/31 07:28:14;;;;;;;10.85;7.78;;;;;;;21.07;100.00;100535.63;5053349;28;20526;-63
2023/08/31 07:30:40;;;;;;;12.75;6.60;;;;;;;21.14;100.00;100555.28;5054358;28;20045;-64
2023/08/31 07:33:06;;;;;;;8.07;5.82;;;;;;;21.33;100.00;100567.66;5057530;28;20504;-64
2023/08/31 07:35:32;;;;;;;10.68;5.57;;;;;;;21.40;100.00;100570.25;5053439;28;20474;-62
2023/08/31 07:37:57;;;;;;;14.60;6.97;;;;;;;21.54;100.00;100559.97;5054239;28;20031;-64
2023/08/31 07:40:23;;;;;;;13.77;6.15;;;;;;;21.81;100.00;100566.47;5054083;28;20124;-64
2023/08/31 07:42:48;;;;;;;11.35;6.05;;;;;;;22.06;100.00;100568.88;5054388;28;20353;-65
2023/08/31 07:45:13;;;;;;;8.25;5.55;;;;;;;22.13;100.00;100541.63;5052003;28;20475;-64
2023/08/31 07:47:39;;;;;;;6.65;5.28;;;;;;;22.17;100.00;100542.75;5053759;28;20460;-65
2023/08/31 07:50:06;;;;;;;9.30;6.85;;;;;;;22.04;100.00;100515.97;5053285;28;20464;-64
2023/08/31 07:52:31;;;;;;;7.20;5.35;;;;;;;22.16;100.00;100547.38;5053050;28;20036;-62
2023/08/31 07:54:57;;;;;;;11.43;6.05;;;;;;;22.24;100.00;100543.44;5054453;28;20389;-64
2023/08/31 07:57:23;;;;;;;7.95;5.72;;;;;;;22.30;100.00;100547.06;5053108;28;20511;-66
2023/08/31 07:59:48;;;;;;;11.15;6.32;;;;;;;22.20;100.00;100536.84;5054679;28;20036;-64
2023/08/31 08:02:16;;;;;;;9.00;5.80;;;;;;;22.33;100.00;100544.69;5055394;28;20021;-65
2023/08/31 08:04:41;;;;;;;9.52;6.43;;;;;;;22.22;100.00;100515.72;5055698;28;20108;-63
2023/08/31 08:07:06;;;;;;;10.13;5.85;;;;;;;22.30;100.00;100528.91;5055284;28;20059;-63
2023/08/31 08:09:32;;;;;;;10.07;5.68;;;;;;;22.24;100.00;100527.97;5052796;28;20104;-65
2023/08/31 08:11:57;;;;;;;10.18;5.82;;;;;;;22.23;100.00;100528.22;5053090;28;20144;-64
2023/08/31 08:14:23;;;;;;;10.85;6.47;;;;;;;22.24;100.00;100524.44;5052722;28;20036;-62
2023/08/31 08:16:48;;;;;;;8.45;6.65;;;;;;;22.39;100.00;100527.41;5053036;28;20079;-64
2023/08/31 08:19:21;;;;;;;12.80;6.72;;;;;;;22.47;100.00;100528.91;5052807;28;20091;-67
2023/08/31 08:21:46;;;;;;;24.23;7.63;;;;;;;22.48;100.00;100515.09;5052300;28;20128;-65
2023/08/31 08:24:12;;;;;;;8.75;5.50;;;;;;;22.49;99.88;100500.44;5052219;28;20492;-67
2023/08/31 08:26:37;;;;;;;6.63;4.90;;;;;;;22.82;99.99;100528.66;5052101;28;20036;-65
2023/08/31 08:29:07;;;;;;;9.18;5.22;;;;;;;22.86;97.55;100510.81;5051010;28;20484;-65
2023/08/31 08:31:32;;;;;;;10.80;5.13;;;;;;;22.88;97.32;100514.09;5051735;28;20048;-65
2023/08/31 08:33:58;;;;;;;7.65;5.43;;;;;;;22.82;97.62;100496.91;5052637;28;20103;-64
2023/08/31 08:36:23;;;;;;;9.90;5.45;;;;;;;22.94;98.00;100515.00;5051739;28;20028;-65
2023/08/31 08:38:48;;;;;;;8.63;5.40;;;;;;;22.82;98.49;100501.50;5052529;28;20016;-65
2023/08/31 08:41:18;;;;;;;13.60;6.20;;;;;;;22.76;97.88;100499.75;5053886;28;20526;-64
2023/08/31 08:43:46;;;;;;;12.57;6.85;;;;;;;22.64;98.29;100504.47;5055917;28;20052;-64
2023/08/31 08:46:12;;;;;;;8.88;5.85;;;;;;;22.56;98.58;100503.84;5056031;28;20376;-65
2023/08/31 08:48:39;;;;;;;10.80;6.20;;;;;;;22.56;98.95;100498.41;5065890;28;20021;-66
2023/08/31 08:51:04;;;;;;;11.50;6.47;;;;;;;22.59;99.82;100501.69;5057722;28;20036;-63
2023/08/31 08:53:30;;;;;;;9.20;6.30;;;;;;;22.64;100.00;100504.47;5056804;28;20021;-66
2023/08/31 08:55:59;;;;;;;10.48;5.97;;;;;;;22.56;99.03;100495.69;5055482;28;20025;-63
2023/08/31 08:58:25;;;;;;;7.65;6.20;;;;;;;22.60;98.89;100487.88;5053844;28;20476;-64
2023/08/31 09:00:54;;;;;;;10.02;6.22;;;;;;;22.64;98.98;100480.06;5059546;28;20112;-62
2023/08/31 09:03:19;;;;;;;8.40;5.93;;;;;;;22.73;98.92;100483.97;5061095;28;20017;-64
2023/08/31 09:05:50;;;;;;;9.40;5.65;;;;;;;22.76;99.05;100478.88;5067314;28;20055;-65
2023/08/31 09:08:15;;;;;;;8.90;6.68;;;;;;;22.71;99.66;100464.41;5056853;28;20025;-64
2023/08/31 09:10:44;;;;;;;8.80;6.47;;;;;;;22.72;99.05;100455.19;5055312;28;20040;-65
2023/08/31 09:13:17;;;;;;;10.45;6.50;;;;;;;22.83;99.65;100476.00;5055770;28;20068;-68
2023/08/31 09:15:48;;;;;;;8.05;6.93;;;;;;;22.84;99.69;100467.63;5055794;28;20029;-64
2023/08/31 09:18:25;;;;;;;10.52;7.05;;;;;;;22.83;99.11;100465.97;5055641;28;20021;-63
2023/08/31 09:20:51;;;;;;;10.57;6.72;;;;;;;22.98;99.36;100473.50;5054600;28;20052;-67
2023/08/31 09:23:17;;;;;;;9.90;7.05;;;;;;;23.02;98.91;100471.94;5055528;28;20174;-66
2023/08/31 09:25:53;;;;;;;11.32;6.35;;;;;;;23.03;100.00;100457.28;5056329;28;20357;-61
2023/08/31 09:28:20;;;;;;;7.88;6.22;;;;;;;23.10;99.38;100459.78;5055503;28;20033;-63
2023/08/31 09:30:48;;;;;;;9.27;7.40;;;;;;;23.17;99.55;100472.13;5055835;28;20041;-68
2023/08/31 09:33:16;;;;;;;10.07;6.93;;;;;;;23.22;99.51;100460.50;5056575;28;20045;-66
2023/08/31 09:35:50;;;;;;;8.80;6.72;;;;;;;23.27;99.21;100459.75;5055978;28;20031;-66
2023/08/31 09:38:16;;;;;;;14.85;7.82;;;;;;;23.36;98.47;100475.34;5055609;28;20025;-64
2023/08/31 09:40:45;;;;;;;9.95;7.82;;;;;;;23.31;98.64;100455.44;5053956;28;20037;-67
2023/08/31 09:43:11;;;;;;;12.68;6.78;;;;;;;23.42;98.49;100466.19;5056645;28;20039;-63
2023/08/31 09:45:38;;;;;;;9.38;6.55;;;;;;;23.42;98.42;100458.03;5054741;28;20090;-64
2023/08/31 09:48:04;;;;;;;10.93;7.55;;;;;;;23.51;97.86;100472.00;5056250;28;20032;-62
2023/08/31 09:50:32;;;;;;;10.02;7.40;;;;;;;23.31;98.08;100430.97;5054150;28;20040;-63
2023/08/31 09:53:05;;;;;;;13.38;7.18;;;;;;;23.53;97.29;100450.81;5054037;28;20091;-64
2023/08/31 09:55:32;;;;;;;17.70;7.45;;;;;;;23.53;97.18;100437.22;5054381;28;20063;-65
2023/08/31 09:57:59;;;;;;;11.30;7.97;;;;;;;23.61;96.98;100439.50;5054628;28;20087;-64
2023/08/31 10:00:29;;;;;;;10.75;8.15;;;;;;;23.72;96.62;100445.88;5054128;28;20059;-64
2023/08/31 10:03:02;;;;;;;11.07;7.68;;;;;;;23.80;95.67;100456.28;5054571;28;20079;-65
2023/08/31 10:05:27;;;;;;;14.30;7.28;;;;;;;23.90;94.48;100439.22;5055069;28;20051;-64
2023/08/31 10:07:54;;;;;;;8.48;6.60;;;;;;;24.03;93.10;100438.81;5053612;28;20025;-63
2023/08/31 10:10:22;;;;;;;11.23;7.00;;;;;;;24.20;91.97;100452.28;5053305;28;20021;-66
2023/08/31 10:12:51;;;;;;;8.95;6.95;;;;;;;24.21;92.34;100443.84;5052488;28;20124;-64
2023/08/31 10:15:18;;;;;;;10.43;6.35;;;;;;;24.20;90.75;100442.22;5053469;28;20024;-65
2023/08/31 10:17:45;;;;;;;14.23;6.93;;;;;;;24.25;91.20;100453.13;5054000;28;20476;-65
2023/08/31 10:20:13;;;;;;;9.30;6.65;;;;;;;24.21;92.40;100443.03;5054225;28;20029;-65
2023/08/31 10:22:39;;;;;;;9.75;6.63;;;;;;;24.28;91.44;100449.91;5053816;28;20029;-64
2023/08/31 10:25:07;;;;;;;9.90;7.00;;;;;;;24.34;91.99;100454.34;5054108;28;20025;-66
2023/08/31 10:27:40;;;;;;;7.97;5.50;;;;;;;24.33;88.70;100439.09;5053085;28;20444;-62
2023/08/31 10:30:28;;;;;;;9.50;7.03;;;;;;;24.32;90.52;100425.75;5053245;28;20049;-64
2023/08/31 10:33:09;;;;;;;6.80;5.88;;;;;;;24.51;89.56;100431.56;5054813;28;20177;-66
2023/08/31 10:35:55;;;;;;;8.20;6.75;;;;;;;24.44;89.45;100425.53;5054731;28;20025;-66
2023/08/31 10:38:27;;;;;;;9.32;5.70;;;;;;;24.54;89.40;100447.38;5068554;28;20033;-67
2023/08/31 10:41:18;;;;;;;32.22;6.97;;;;;;;24.52;88.46;100434.03;5065364;28;20094;-67
2023/08/31 10:43:59;;;;;;;10.13;5.35;;;;;;;24.37;88.26;100393.94;5056550;28;20097;-66
2023/08/31 10:46:28;;;;;;;12.80;7.18;;;;;;;24.67;86.31;100436.03;5038379;28;20519;-68
2023/08/31 10:48:58;;;;;;;8.05;6.88;;;;;;;24.75;86.34;100443.69;5055248;28;20017;-68
2023/08/31 10:51:29;;;;;;;10.90;5.95;;;;;;;24.74;85.44;100430.34;5056445;28;20454;-65
2023/08/31 10:54:10;;;;;;;12.57;5.75;;;;;;;24.72;84.60;100433.34;5043240;28;20028;-67
2023/08/31 10:56:52;;;;;;;9.15;6.78;;;;;;;24.78;86.30;100442.34;5069681;28;20028;-62
2023/08/31 10:59:17;;;;;;;8.25;5.93;;;;;;;24.81;85.22;100437.19;5069821;28;20045;-64
2023/08/31 11:02:01;;;;;;;9.98;7.68;;;;;;;24.90;85.48;100435.63;5052504;28;20112;-65
2023/08/31 11:04:27;;;;;;;8.88;6.28;;;;;;;24.90;84.27;100435.63;5052086;28;20534;-64
2023/08/31 11:07:15;;;;;;;10.13;6.35;;;;;;;24.94;83.74;100436.72;5052211;28;20017;-65
2023/08/31 11:09:44;;;;;;;;;;;;;;;24.95;83.83;100432.91;5052354;28;20426;-64
2023/08/31 11:12:10;;;;;;;9.20;6.00;;;;;;;24.90;82.22;100423.91;5052130;28;19909;-65
2023/08/31 11:14:36;;;;;;;6.97;5.43;;;;;;;24.88;81.68;100413.28;5051955;28;20028;-66
2023/08/31 11:17:05;;;;;;;8.85;5.43;;;;;;;24.99;81.26;100423.16;5050445;28;20025;-65